首页
METAR-TAF:

METAR-TAF

机场 :

伦敦绍森德机场

伦敦Southend, 英格兰

纬度: 51-34N, 经度: 000-42E, 海拔: 15米

当前天气观测

该预报发布于30分钟前的21:50 UTC
风速15节,风向西北
温度 11°C
湿度 76%
气压 1010 hPa
能见度10公里或以上
少量云层高于1600英尺
多云层高于1900英尺

METAR: EGMC 262150Z 32015KT 9999 FEW016 BKN019 11/07 Q1010

时间: 23:20 (22:20 UTC)

预报

该预报发布于2小时和25分钟前的19:55 UTC
预报有效从26日的 21点(UTC)到 27日的 06点(UTC)
风速15节,风向西北
能见度10公里或以上
散云层高于2000英尺
短暂存在
从 26日的 21点(UTC)到 27日的 06点(UTC)
风速18节,风向西北,有时为30节阵风
几率 30% :
短暂存在
从 26日的 21点(UTC)到 27日的 06点(UTC)
能見度: 8000
多云层高于1400英尺
小雨, 毛毛雨

TAF: EGMC 261955Z 2621/2706 32015KT 9999 SCT020 TEMPO 2621/2706 32018G30KT PROB30 TEMPO 2621/2706 8000 -RADZ BKN014

超过4000个机场的气象观测和天气预报(METAR&TAF报告)。

可查询的气象台以黄色和红色小点在地图上表示。

将鼠标移到小点上方,可查看气象台名称。

然后点击查看天气观测和预报。

如需切换地图:点击带黑十字的绿色按钮放大地图;点击带横线的绿色按钮缩小地图;或者点击绿色箭头查看邻近地区的地图。


METAR-TAF: